Time;durP1;ratioP1;P1;durP2;ratioP2;P2;SDS_P1;SDS_P2;PMS_P1;PMS_P2;Temp;Humidity;BMP_temperature;BMP_pressure;BME280_temperature;BME280_humidity;BME280_pressure;Samples;Min_cycle;Max_cycle;Signal;HPM_P1;HPM_P2
2023/07/21 00:01:08;;;;;;;4.25;3.20;;;13.40;99.90;;;;;;5092568;28;20036;-86
2023/07/21 00:03:35;;;;;;;4.40;3.17;;;13.40;99.90;;;;;;5106430;28;20386;-87
2023/07/21 00:06:03;;;;;;;3.55;3.25;;;13.50;99.90;;;;;;5104259;28;20455;-86
2023/07/21 00:08:29;;;;;;;3.22;2.92;;;13.70;99.90;;;;;;5093543;28;20044;-86
2023/07/21 00:10:58;;;;;;;3.35;3.05;;;13.40;99.90;;;;;;5105273;28;20055;-85
2023/07/21 00:13:29;;;;;;;3.85;3.20;;;13.40;99.90;;;;;;5109978;28;20051;-86
2023/07/21 00:15:55;;;;;;;4.32;3.05;;;13.30;99.90;;;;;;5092934;28;20047;-86
2023/07/21 00:18:22;;;;;;;3.85;3.30;;;13.30;99.90;;;;;;5093903;28;20122;-86
2023/07/21 00:20:47;;;;;;;3.50;3.20;;;13.30;99.90;;;;;;5109103;28;20386;-86
2023/07/21 00:23:14;;;;;;;4.03;3.60;;;14.00;99.90;;;;;;5092355;28;20068;-86
2023/07/21 00:25:39;;;;;;;4.45;3.60;;;13.30;99.90;;;;;;5110420;27;20043;-86
2023/07/21 00:28:05;;;;;;;4.25;3.33;;;13.30;99.90;;;;;;5103857;27;20528;-86
2023/07/21 00:30:32;;;;;;;3.70;3.35;;;13.20;99.90;;;;;;5099390;27;20146;-86
2023/07/21 00:32:59;;;;;;;4.50;3.33;;;13.30;99.90;;;;;;5109482;28;20047;-86
2023/07/21 00:35:24;;;;;;;5.38;3.42;;;13.40;99.90;;;;;;5091784;28;20830;-86
2023/07/21 00:37:51;;;;;;;5.80;3.58;;;13.30;99.90;;;;;;5110206;28;20079;-86
2023/07/21 00:40:19;;;;;;;3.50;3.20;;;13.30;99.90;;;;;;5082980;28;20048;-87
2023/07/21 00:42:45;;;;;;;4.05;3.25;;;13.90;99.90;;;;;;5108629;28;20332;-86
2023/07/21 00:45:14;;;;;;;3.97;3.33;;;13.20;99.90;;;;;;5110261;28;20110;-86
2023/07/21 00:47:40;;;;;;;3.58;3.22;;;13.20;99.90;;;;;;5108666;28;20418;-86
2023/07/21 00:50:07;;;;;;;3.72;3.20;;;13.20;99.90;;;;;;5095894;28;20490;-86
2023/07/21 00:52:34;;;;;;;3.88;3.40;;;13.20;99.90;;;;;;5106589;28;20069;-86
2023/07/21 00:55:00;;;;;;;4.20;3.80;;;13.20;99.90;;;;;;5110854;28;20040;-86
2023/07/21 00:57:27;;;;;;;4.47;3.30;;;13.20;99.90;;;;;;5110988;27;20105;-86
2023/07/21 00:59:52;;;;;;;3.88;3.58;;;13.20;99.90;;;;;;5100479;27;20793;-85
2023/07/21 01:02:18;;;;;;;5.15;3.28;;;13.20;99.90;;;;;;5106342;27;20041;-86
2023/07/21 01:04:44;;;;;;;3.63;3.15;;;13.20;99.90;;;;;;5088175;28;21007;-85
2023/07/21 01:07:11;;;;;;;4.32;3.28;;;13.20;99.90;;;;;;5104661;28;20424;-86
2023/07/21 01:09:38;;;;;;;4.68;3.30;;;13.20;99.90;;;;;;5108026;28;20073;-86
2023/07/21 01:12:06;;;;;;;3.53;3.22;;;13.20;99.90;;;;;;5103162;27;20058;-86
2023/07/21 01:14:33;;;;;;;3.97;3.00;;;13.10;99.90;;;;;;5094204;28;20089;-86
2023/07/21 01:17:00;;;;;;;4.20;3.80;;;13.10;99.90;;;;;;5092734;28;20063;-86
2023/07/21 01:19:28;;;;;;;5.32;3.92;;;13.10;99.90;;;;;;5107260;28;20054;-85
2023/07/21 01:22:05;;;;;;;6.15;4.00;;;13.10;99.90;;;;;;5109827;28;20073;-86
2023/07/21 01:24:52;;;;;;;6.03;3.55;;;13.30;99.90;;;;;;5105026;28;20047;-87
2023/07/21 01:27:20;;;;;;;4.22;3.42;;;13.60;99.90;;;;;;5080625;28;20056;-86
2023/07/21 01:29:47;;;;;;;4.88;3.53;;;13.10;99.90;;;;;;5107826;28;20066;-86
2023/07/21 01:32:15;;;;;;;4.68;3.80;;;13.10;99.90;;;;;;5083605;28;20510;-86
2023/07/21 01:34:42;;;;;;;3.83;3.42;;;13.10;99.90;;;;;;5087872;28;20032;-86
2023/07/21 01:37:09;;;;;;;4.38;3.80;;;13.10;99.90;;;;;;5072820;28;20391;-86
2023/07/21 01:39:39;;;;;;;4.72;3.60;;;13.00;99.90;;;;;;5083140;28;20045;-86
2023/07/21 01:42:06;;;;;;;4.35;3.78;;;13.00;99.90;;;;;;5067920;28;20044;-86
2023/07/21 01:44:32;;;;;;;5.32;3.90;;;13.00;99.90;;;;;;5088404;28;20185;-86
2023/07/21 01:46:59;;;;;;;4.97;4.47;;;13.00;99.90;;;;;;5090024;28;20054;-87
2023/07/21 01:49:24;;;;;;;4.63;4.22;;;13.00;99.90;;;;;;5088699;28;20036;-86
2023/07/21 01:51:52;;;;;;;4.78;4.25;;;13.00;99.90;;;;;;5070297;28;20036;-86
2023/07/21 01:54:31;;;;;;;5.70;4.30;;;13.30;99.90;;;;;;5088013;28;20113;-86
2023/07/21 01:57:02;;;;;;;4.70;3.85;;;13.00;99.90;;;;;;5068699;28;20467;-86
2023/07/21 01:59:28;;;;;;;4.60;4.15;;;13.10;99.90;;;;;;5074683;28;20047;-86
2023/07/21 02:01:57;;;;;;;4.68;4.22;;;13.00;99.90;;;;;;5096176;28;20053;-86
2023/07/21 02:04:23;;;;;;;5.03;4.40;;;13.60;99.90;;;;;;5100305;28;20036;-86
2023/07/21 02:06:52;;;;;;;4.25;3.85;;;13.10;99.90;;;;;;5066479;28;20139;-86
2023/07/21 02:09:19;;;;;;;6.07;4.00;;;13.10;99.90;;;;;;5077366;28;20116;-86
2023/07/21 02:11:45;;;;;;;4.53;3.97;;;13.80;99.90;;;;;;5092614;28;20159;-86
2023/07/21 02:14:11;;;;;;;4.60;4.10;;;13.10;99.90;;;;;;5080047;28;20500;-86
2023/07/21 02:16:39;;;;;;;6.70;3.95;;;13.00;99.90;;;;;;5087046;28;20044;-86
2023/07/21 02:19:06;;;;;;;4.20;3.60;;;13.10;99.90;;;;;;5088054;28;20489;-86
2023/07/21 02:21:32;;;;;;;3.90;3.35;;;13.00;99.90;;;;;;5065797;28;20490;-85
2023/07/21 02:23:58;;;;;;;4.75;3.55;;;13.00;99.90;;;;;;5059544;28;20048;-86
2023/07/21 02:26:24;;;;;;;4.15;3.75;;;13.00;99.90;;;;;;5087567;28;20098;-86
2023/07/21 02:28:49;;;;;;;3.60;3.25;;;13.00;99.90;;;;;;5108026;28;20146;-86
2023/07/21 02:31:15;;;;;;;4.28;3.20;;;12.90;99.90;;;;;;5109001;28;20114;-86
2023/07/21 02:33:40;;;;;;;3.33;3.03;;;12.90;99.90;;;;;;5108603;28;20117;-86
2023/07/21 02:36:07;;;;;;;4.43;3.15;;;12.90;99.90;;;;;;5088788;28;20051;-86
2023/07/21 02:38:32;;;;;;;3.83;3.53;;;12.90;99.90;;;;;;5107242;28;20052;-86
2023/07/21 02:41:04;;;;;;;4.68;3.70;;;12.80;99.90;;;;;;5109459;28;20040;-87
2023/07/21 02:43:33;;;;;;;5.90;4.10;;;12.70;99.90;;;;;;5106346;28;20545;-86
2023/07/21 02:45:58;;;;;;;3.85;3.45;;;13.40;99.90;;;;;;5088899;27;20292;-86
2023/07/21 02:48:24;;;;;;;5.30;3.53;;;12.70;99.90;;;;;;5109788;27;20550;-86
2023/07/21 02:50:52;;;;;;;4.80;4.30;;;12.70;99.90;;;;;;5086385;28;20101;-86
2023/07/21 02:53:19;;;;;;;6.80;3.95;;;12.70;99.90;;;;;;5087935;28;20127;-86
2023/07/21 02:55:45;;;;;;;4.07;3.67;;;13.30;99.90;;;;;;5090081;28;20486;-86
2023/07/21 02:58:13;;;;;;;3.70;3.40;;;12.60;99.90;;;;;;5106972;28;20577;-86
2023/07/21 03:00:40;;;;;;;4.13;3.58;;;12.80;99.90;;;;;;5106405;27;20156;-86
2023/07/21 03:03:07;;;;;;;4.55;3.80;;;13.30;99.90;;;;;;5091246;28;20050;-86
2023/07/21 03:05:33;;;;;;;6.25;3.67;;;12.60;99.90;;;;;;5100066;28;20075;-87
2023/07/21 03:08:00;;;;;;;4.43;3.60;;;12.60;99.90;;;;;;5104323;28;20068;-85
2023/07/21 03:10:25;;;;;;;4.15;3.50;;;12.90;99.90;;;;;;5104018;28;20046;-87
2023/07/21 03:12:52;;;;;;;4.82;3.97;;;12.60;99.90;;;;;;5077405;28;20127;-86
2023/07/21 03:15:17;;;;;;;4.30;3.40;;;12.80;99.90;;;;;;5089190;28;20387;-86
2023/07/21 03:17:43;;;;;;;4.72;3.67;;;12.50;99.90;;;;;;5107065;28;20039;-85
2023/07/21 03:20:12;;;;;;;5.50;4.07;;;12.50;99.90;;;;;;5078605;28;20469;-86
2023/07/21 03:22:38;;;;;;;4.85;4.35;;;12.40;99.90;;;;;;5082383;28;20482;-86
2023/07/21 03:25:06;;;;;;;5.00;4.32;;;13.10;99.90;;;;;;5105562;28;20043;-86
2023/07/21 03:27:40;;;;;;;5.82;4.50;;;12.10;99.90;;;;;;5107186;28;20481;-87
2023/07/21 03:30:07;;;;;;;7.53;5.07;;;12.40;99.90;;;;;;5087016;28;20058;-86
2023/07/21 03:32:34;;;;;;;8.30;5.28;;;12.40;99.90;;;;;;5087501;28;20063;-85
2023/07/21 03:35:02;;;;;;;6.93;5.05;;;12.20;99.90;;;;;;5103321;28;20125;-86
2023/07/21 03:37:28;;;;;;;7.32;5.43;;;12.40;99.90;;;;;;5104563;28;20059;-86
2023/07/21 03:39:54;;;;;;;7.30;5.70;;;12.30;99.90;;;;;;5118473;28;20369;-86
2023/07/21 03:42:19;;;;;;;7.38;6.28;;;12.40;99.90;;;;;;5083620;28;20044;-86
2023/07/21 03:44:49;;;;;;;5.93;5.30;;;12.40;99.90;;;;;;5083333;28;20071;-87
2023/07/21 03:47:19;;;;;;;7.10;4.82;;;12.40;99.90;;;;;;5106743;28;20042;-86
2023/07/21 03:49:50;;;;;;;5.78;5.20;;;12.40;99.90;;;;;;5111617;28;20058;-86
2023/07/21 03:52:16;;;;;;;6.15;5.65;;;12.30;99.90;;;;;;5112138;28;20050;-85
2023/07/21 03:54:41;;;;;;;8.82;6.68;;;12.40;99.90;;;;;;5112026;28;20079;-86
2023/07/21 03:57:07;;;;;;;6.28;5.50;;;12.40;99.90;;;;;;5083045;28;20477;-86
2023/07/21 03:59:33;;;;;;;5.57;4.88;;;12.40;99.90;;;;;;5090621;28;20048;-87
2023/07/21 04:01:58;;;;;;;11.43;5.47;;;12.40;99.90;;;;;;5106725;27;20075;-86
2023/07/21 04:04:24;;;;;;;6.90;5.30;;;12.40;99.90;;;;;;5109967;28;20390;-86
2023/07/21 04:06:49;;;;;;;7.82;5.25;;;12.50;99.90;;;;;;5075719;28;20043;-86
2023/07/21 04:09:15;;;;;;;6.07;5.53;;;12.50;99.90;;;;;;5081708;28;20666;-87
2023/07/21 04:11:42;;;;;;;5.90;5.30;;;12.50;99.90;;;;;;5106096;28;20066;-87
2023/07/21 04:14:07;;;;;;;10.13;5.60;;;12.60;99.90;;;;;;5108724;28;20552;-87
2023/07/21 04:16:34;;;;;;;9.73;5.25;;;12.60;99.90;;;;;;5101779;28;20221;-87
2023/07/21 04:19:00;;;;;;;6.03;5.13;;;12.60;99.90;;;;;;5118755;27;20079;-87
2023/07/21 04:21:25;;;;;;;6.88;4.72;;;12.70;99.90;;;;;;5107685;28;20055;-86
2023/07/21 04:23:52;;;;;;;8.80;5.50;;;12.60;99.90;;;;;;5109306;28;20047;-87
2023/07/21 04:26:18;;;;;;;6.82;5.00;;;12.60;99.90;;;;;;5081088;28;20058;-86
2023/07/21 04:28:47;;;;;;;6.15;4.75;;;12.70;99.90;;;;;;5099999;28;20048;-87
2023/07/21 04:31:13;;;;;;;6.40;5.10;;;13.00;99.90;;;;;;5087809;28;20150;-86
2023/07/21 04:33:40;;;;;;;5.40;4.90;;;13.20;99.90;;;;;;5121520;27;20124;-86
2023/07/21 04:36:07;;;;;;;6.43;5.03;;;12.90;99.90;;;;;;5113108;27;20051;-86
2023/07/21 04:38:33;;;;;;;6.10;5.00;;;13.40;99.90;;;;;;5110127;27;20085;-86
2023/07/21 04:40:58;;;;;;;6.72;4.60;;;13.10;99.90;;;;;;5109881;28;20044;-86
2023/07/21 04:43:24;;;;;;;5.63;5.03;;;13.10;99.90;;;;;;5109929;28;20040;-87
2023/07/21 04:45:50;;;;;;;6.57;5.22;;;13.20;99.90;;;;;;5108575;28;20067;-86
2023/07/21 04:48:16;;;;;;;5.28;4.60;;;13.50;99.90;;;;;;5109350;28;20047;-87
2023/07/21 04:50:42;;;;;;;5.57;4.53;;;13.70;99.90;;;;;;5108648;28;20044;-86
2023/07/21 04:53:09;;;;;;;7.85;4.63;;;13.30;99.90;;;;;;5111138;27;20082;-87
2023/07/21 04:55:34;;;;;;;5.90;4.68;;;13.40;99.90;;;;;;5108517;28;20048;-87
2023/07/21 04:58:01;;;;;;;5.68;4.65;;;13.50;99.90;;;;;;5108727;27;20039;-86
2023/07/21 05:00:27;;;;;;;4.68;4.18;;;13.90;99.90;;;;;;5100781;28;20090;-86
2023/07/21 05:02:53;;;;;;;5.05;4.40;;;13.70;99.90;;;;;;5109090;27;20047;-87
2023/07/21 05:05:19;;;;;;;5.20;4.43;;;14.30;99.90;;;;;;5117928;27;20095;-87
2023/07/21 05:07:44;;;;;;;7.03;4.80;;;14.40;99.90;;;;;;5112385;27;20044;-86
2023/07/21 05:10:10;;;;;;;7.55;4.78;;;14.40;99.90;;;;;;5106297;28;20058;-86
2023/07/21 05:12:36;;;;;;;6.70;4.28;;;14.00;99.90;;;;;;5075386;28;20177;-86
2023/07/21 05:15:02;;;;;;;5.38;4.30;;;14.10;99.90;;;;;;5095852;28;20408;-86
2023/07/21 05:17:28;;;;;;;5.10;3.95;;;14.30;99.90;;;;;;5090727;28;20063;-87
2023/07/21 05:19:53;;;;;;;4.60;4.07;;;14.70;99.90;;;;;;5109694;27;20428;-87
2023/07/21 05:22:19;;;;;;;4.25;3.85;;;14.50;99.90;;;;;;5110034;28;20039;-87
2023/07/21 05:24:45;;;;;;;5.03;3.67;;;14.60;99.90;;;;;;5092784;28;20043;-86
2023/07/21 05:27:11;;;;;;;6.90;4.43;;;14.60;99.90;;;;;;5110219;28;20059;-86
2023/07/21 05:29:37;;;;;;;7.05;4.03;;;14.80;99.90;;;;;;5093513;28;20059;-87
2023/07/21 05:32:05;;;;;;;4.47;3.38;;;14.80;99.90;;;;;;5109230;28;20063;-86
2023/07/21 05:34:32;;;;;;;7.03;3.38;;;14.90;99.90;;;;;;5109205;27;20093;-86
2023/07/21 05:36:58;;;;;;;4.10;3.40;;;15.00;99.90;;;;;;5091809;28;20058;-86
2023/07/21 05:39:26;;;;;;;3.90;3.15;;;15.00;99.90;;;;;;5108509;28;20040;-86
2023/07/21 05:41:55;;;;;;;4.40;3.08;;;15.10;99.90;;;;;;5091877;28;20054;-86
2023/07/21 05:44:21;;;;;;;4.07;3.15;;;15.20;99.90;;;;;;5092093;28;20122;-86
2023/07/21 05:46:47;;;;;;;3.95;2.92;;;16.10;99.90;;;;;;5104585;27;20202;-86
2023/07/21 05:49:14;;;;;;;4.55;3.17;;;16.30;99.90;;;;;;5109149;27;20043;-86
2023/07/21 05:51:40;;;;;;;5.10;3.17;;;16.60;99.90;;;;;;5107797;27;20051;-87
2023/07/21 05:54:07;;;;;;;3.17;2.88;;;17.60;99.90;;;;;;5089520;28;20047;-86
2023/07/21 05:56:32;;;;;;;5.10;2.67;;;18.60;99.90;;;;;;5088971;28;20044;-87
2023/07/21 05:58:59;;;;;;;6.47;2.40;;;19.50;99.90;;;;;;5072937;28;20047;-87
2023/07/21 06:01:28;;;;;;;4.90;2.50;;;21.00;99.90;;;;;;5089351;28;20075;-86
2023/07/21 06:03:54;;;;;;;2.35;2.03;;;20.30;99.90;;;;;;5088866;28;20055;-85
2023/07/21 06:06:20;;;;;;;2.80;2.22;;;20.10;99.90;;;;;;5107150;27;20036;-88
2023/07/21 06:08:45;;;;;;;3.03;2.13;;;20.20;99.90;;;;;;5109231;27;20039;-87
2023/07/21 06:11:11;;;;;;;5.03;1.70;;;20.80;99.90;;;;;;5107034;28;20039;-87
2023/07/21 06:13:37;;;;;;;2.78;1.52;;;21.20;99.90;;;;;;5108071;28;20100;-86
2023/07/21 06:16:03;;;;;;;2.78;1.73;;;21.90;99.90;;;;;;5108429;28;20063;-86
2023/07/21 06:18:28;;;;;;;4.30;1.90;;;22.20;99.90;;;;;;5108390;28;20055;-86
2023/07/21 06:20:54;;;;;;;2.63;1.60;;;22.60;99.90;;;;;;5107390;28;20180;-85
2023/07/21 06:23:20;;;;;;;2.72;1.45;;;22.90;99.40;;;;;;5126598;27;20047;-85
2023/07/21 06:25:46;;;;;;;3.10;1.30;;;23.30;97.80;;;;;;5117157;27;20092;-87
2023/07/21 06:28:12;;;;;;;1.60;1.30;;;23.80;96.10;;;;;;5090973;28;20052;-81
2023/07/21 06:30:38;;;;;;;1.88;1.30;;;23.90;94.70;;;;;;5090603;28;20789;-83
2023/07/21 06:33:05;;;;;;;1.75;1.08;;;24.10;93.90;;;;;;5104976;28;20065;-83
2023/07/21 06:35:31;;;;;;;2.75;1.38;;;24.80;93.50;;;;;;5106528;28;20425;-83
2023/07/21 06:37:57;;;;;;;7.53;1.48;;;23.80;92.50;;;;;;5107078;28;20051;-86
2023/07/21 06:40:23;;;;;;;1.73;1.10;;;22.80;93.10;;;;;;5106616;28;20054;-85
2023/07/21 06:42:49;;;;;;;3.03;1.42;;;22.00;94.40;;;;;;5107543;28;20508;-85
2023/07/21 06:45:15;;;;;;;3.65;1.13;;;21.90;96.10;;;;;;5107191;28;20075;-85
2023/07/21 06:47:40;;;;;;;3.50;1.30;;;20.70;97.80;;;;;;5107705;28;20055;-85
2023/07/21 06:50:07;;;;;;;2.75;1.35;;;20.90;99.20;;;;;;5106666;27;20071;-84
2023/07/21 06:52:32;;;;;;;3.08;1.40;;;20.00;99.90;;;;;;5105443;27;20452;-85
2023/07/21 06:54:58;;;;;;;1.88;1.20;;;19.70;99.90;;;;;;5106841;28;20058;-85
2023/07/21 06:57:24;;;;;;;1.67;1.15;;;19.60;99.90;;;;;;5105145;28;20036;-85
2023/07/21 06:59:50;;;;;;;1.40;1.20;;;19.60;99.90;;;;;;5105013;28;20070;-85
2023/07/21 07:02:18;;;;;;;1.73;1.15;;;19.50;99.90;;;;;;5089242;28;20051;-85
2023/07/21 07:04:44;;;;;;;4.30;1.70;;;19.50;99.90;;;;;;5107381;28;20481;-84
2023/07/21 07:07:10;;;;;;;2.95;1.20;;;19.40;99.90;;;;;;5116609;27;20408;-85
2023/07/21 07:09:36;;;;;;;2.70;1.40;;;19.50;99.90;;;;;;5110706;27;20047;-84
2023/07/21 07:12:03;;;;;;;3.17;1.40;;;19.30;99.90;;;;;;5108099;28;20052;-84
2023/07/21 07:14:30;;;;;;;2.45;1.05;;;19.50;99.90;;;;;;5088350;28;20066;-85
2023/07/21 07:16:55;;;;;;;3.40;1.60;;;19.60;99.90;;;;;;5106819;28;20442;-84
2023/07/21 07:19:21;;;;;;;1.30;1.20;;;20.30;99.90;;;;;;5089399;28;20074;-84
2023/07/21 07:21:47;;;;;;;1.25;1.15;;;19.80;99.90;;;;;;5107778;28;20526;-85
2023/07/21 07:24:13;;;;;;;1.15;1.05;;;19.90;99.90;;;;;;5106960;28;20051;-84
2023/07/21 07:26:38;;;;;;;2.65;1.20;;;20.50;99.90;;;;;;5106141;28;20548;-84
2023/07/21 07:29:04;;;;;;;1.58;0.82;;;20.60;99.90;;;;;;5089187;28;20052;-84
2023/07/21 07:31:33;;;;;;;1.00;0.90;;;20.20;99.30;;;;;;5106202;28;20516;-84
2023/07/21 07:33:58;;;;;;;1.17;1.02;;;20.30;98.30;;;;;;5106400;28;20043;-84
2023/07/21 07:36:24;;;;;;;2.80;1.40;;;20.40;98.40;;;;;;5106048;28;20439;-84
2023/07/21 07:38:49;;;;;;;2.53;1.40;;;20.30;97.50;;;;;;5106284;28;20051;-84
2023/07/21 07:41:17;;;;;;;1.73;1.40;;;20.20;97.50;;;;;;5105744;28;20038;-84
2023/07/21 07:43:43;;;;;;;1.48;1.38;;;20.10;97.50;;;;;;5106625;28;20173;-84
2023/07/21 07:46:11;;;;;;;5.30;1.60;;;20.00;97.80;;;;;;5106149;28;20122;-84
2023/07/21 07:48:37;;;;;;;1.10;1.00;;;20.10;98.30;;;;;;5106374;28;20062;-84
2023/07/21 07:51:04;;;;;;;2.97;1.60;;;20.00;98.40;;;;;;5105353;28;20044;-84
2023/07/21 07:53:31;;;;;;;2.38;1.60;;;20.20;98.30;;;;;;5106965;28;20066;-84
2023/07/21 07:55:57;;;;;;;2.35;1.50;;;20.30;97.50;;;;;;5089285;28;20035;-84
2023/07/21 07:58:23;;;;;;;2.20;1.50;;;21.00;97.20;;;;;;5106192;28;20036;-84
2023/07/21 08:00:48;;;;;;;1.70;1.35;;;20.70;97.00;;;;;;5106353;28;20048;-84
2023/07/21 08:03:14;;;;;;;2.60;1.42;;;20.70;96.70;;;;;;5105651;28;20075;-84
2023/07/21 08:05:41;;;;;;;3.47;1.27;;;20.60;96.40;;;;;;5105486;28;20059;-85
2023/07/21 08:08:10;;;;;;;1.65;1.38;;;20.60;95.80;;;;;;5089167;28;20516;-84
2023/07/21 08:10:35;;;;;;;2.45;1.45;;;20.60;96.20;;;;;;5105989;28;20062;-84
2023/07/21 08:13:06;;;;;;;1.80;1.50;;;20.70;96.70;;;;;;5106470;28;20097;-84
2023/07/21 08:15:32;;;;;;;1.88;1.00;;;20.90;96.70;;;;;;5106474;28;20130;-84
2023/07/21 08:17:58;;;;;;;1.50;1.15;;;20.70;95.60;;;;;;5107692;28;20134;-84
2023/07/21 08:20:24;;;;;;;2.67;1.08;;;20.60;95.60;;;;;;5088681;28;20089;-84
2023/07/21 08:22:52;;;;;;;1.58;1.10;;;21.00;96.20;;;;;;5089444;28;20044;-84
2023/07/21 08:25:19;;;;;;;1.27;0.98;;;20.70;95.00;;;;;;5105888;28;20457;-84
2023/07/21 08:27:45;;;;;;;3.50;1.13;;;20.70;93.80;;;;;;5135359;27;20103;-84
2023/07/21 08:30:11;;;;;;;1.17;1.02;;;21.00;93.90;;;;;;5112609;27;20046;-84
2023/07/21 08:32:40;;;;;;;1.80;1.17;;;21.00;94.50;;;;;;5129600;27;20075;-84
2023/07/21 08:35:07;;;;;;;1.30;1.20;;;21.00;93.00;;;;;;5115229;27;20042;-84
2023/07/21 08:37:33;;;;;;;1.45;1.10;;;21.00;93.20;;;;;;5133508;27;20046;-84
2023/07/21 08:39:59;;;;;;;2.22;1.38;;;21.10;92.60;;;;;;5133358;27;20046;-85
2023/07/21 08:42:26;;;;;;;2.03;1.20;;;21.60;92.80;;;;;;5131363;27;20051;-84
2023/07/21 08:44:55;;;;;;;1.30;1.10;;;21.40;92.00;;;;;;5131210;27;20035;-85
2023/07/21 08:47:22;;;;;;;1.45;1.00;;;21.40;91.10;;;;;;5112864;27;20082;-87
2023/07/21 08:49:48;;;;;;;1.38;1.08;;;21.40;91.10;;;;;;5096134;27;20042;-87
2023/07/21 08:52:15;;;;;;;1.70;1.40;;;21.50;90.70;;;;;;5113607;27;20047;-87
2023/07/21 08:54:40;;;;;;;2.15;1.10;;;21.60;90.60;;;;;;5112908;27;20047;-86
2023/07/21 08:57:06;;;;;;;1.10;1.00;;;21.60;90.40;;;;;;5112826;27;20403;-86
2023/07/21 08:59:32;;;;;;;1.92;1.00;;;21.60;89.60;;;;;;5131107;27;20472;-86
2023/07/21 09:01:58;;;;;;;2.35;1.13;;;21.80;90.20;;;;;;5113633;27;20055;-86
2023/07/21 09:04:25;;;;;;;2.33;1.30;;;21.80;88.30;;;;;;5112790;27;20116;-84
2023/07/21 09:07:02;;;;;;;1.25;1.00;;;21.80;86.10;;;;;;5112450;27;20503;-85
2023/07/21 09:09:32;;;;;;;1.90;1.50;;;21.70;83.20;;;;;;5112735;27;20043;-84
2023/07/21 09:12:03;;;;;;;2.22;1.60;;;21.60;85.10;;;;;;5095559;27;20054;-85
2023/07/21 09:14:40;;;;;;;1.85;1.02;;;21.50;84.40;;;;;;5119554;27;20046;-85
2023/07/21 09:17:07;;;;;;;1.50;1.40;;;21.50;86.00;;;;;;5133357;27;20058;-86
2023/07/21 09:19:37;;;;;;;1.85;1.40;;;21.60;86.10;;;;;;5133074;27;20177;-86
2023/07/21 09:22:04;;;;;;;1.70;1.30;;;21.60;85.80;;;;;;5122463;27;20099;-86
2023/07/21 09:24:30;;;;;;;2.45;1.40;;;21.70;86.90;;;;;;5111926;27;20043;-87
2023/07/21 09:27:16;;;;;;;2.58;1.60;;;22.30;87.20;;;;;;5111509;27;20047;-85
2023/07/21 09:29:42;;;;;;;2.28;1.42;;;21.60;87.00;;;;;;5113744;27;20077;-86
2023/07/21 09:32:19;;;;;;;2.13;1.55;;;22.30;87.70;;;;;;5089532;27;20047;-86
2023/07/21 09:35:04;;;;;;;2.85;1.60;;;22.20;84.00;;;;;;5111819;27;20775;-86
2023/07/21 09:37:34;;;;;;;1.60;1.50;;;21.90;83.50;;;;;;5130541;27;20501;-86
2023/07/21 09:40:06;;;;;;;4.22;2.25;;;21.90;85.60;;;;;;5112528;27;20051;-86
2023/07/21 09:42:32;;;;;;;2.80;2.13;;;22.00;87.80;;;;;;5096194;27;20086;-84
2023/07/21 09:44:58;;;;;;;1.63;1.50;;;22.60;87.00;;;;;;5127453;27;20031;-85
2023/07/21 09:47:24;;;;;;;1.25;1.15;;;22.20;85.50;;;;;;5110694;27;20042;-81
2023/07/21 09:49:54;;;;;;;1.73;1.30;;;22.30;84.00;;;;;;5131537;27;20035;-82
2023/07/21 09:52:21;;;;;;;2.08;1.30;;;22.40;82.60;;;;;;5109785;27;20042;-82
2023/07/21 09:55:09;;;;;;;2.30;1.15;;;22.80;81.50;;;;;;5129260;27;20054;-85
2023/07/21 09:57:46;;;;;;;1.13;0.95;;;22.40;82.30;;;;;;5130199;27;20099;-84
2023/07/21 10:00:14;;;;;;;1.63;1.10;;;22.20;81.70;;;;;;5095314;27;20115;-84
2023/07/21 10:02:45;;;;;;;1.90;1.20;;;22.10;83.00;;;;;;5127450;27;20133;-83
2023/07/21 10:05:11;;;;;;;1.30;1.00;;;22.60;82.60;;;;;;5110728;27;20058;-84
2023/07/21 10:07:46;;;;;;;1.23;1.10;;;22.60;82.80;;;;;;5129258;27;20133;-83
2023/07/21 10:10:12;;;;;;;2.08;1.15;;;22.80;81.40;;;;;;5109723;27;20064;-83
2023/07/21 10:12:41;;;;;;;1.50;1.13;;;22.80;80.50;;;;;;5129146;27;20111;-85
2023/07/21 10:15:16;;;;;;;1.10;1.10;;;22.80;81.10;;;;;;5129929;27;20522;-85
2023/07/21 10:17:53;;;;;;;2.47;1.10;;;22.60;78.60;;;;;;5111025;27;20043;-84
2023/07/21 10:20:20;;;;;;;1.10;1.00;;;22.50;79.70;;;;;;5128903;27;20051;-85
2023/07/21 10:22:55;;;;;;;2.10;1.20;;;22.40;79.30;;;;;;5113643;27;20050;-85
2023/07/21 10:25:23;;;;;;;2.22;1.35;;;22.30;76.60;;;;;;5127017;27;20490;-85
2023/07/21 10:28:03;;;;;;;1.05;0.98;;;22.10;78.00;;;;;;5128317;27;20566;-85
2023/07/21 10:30:28;;;;;;;1.30;1.10;;;22.40;79.50;;;;;;5128870;27;20062;-85
2023/07/21 10:32:54;;;;;;;4.40;1.10;;;22.10;79.90;;;;;;5109702;27;20039;-85
2023/07/21 10:35:39;;;;;;;1.55;1.15;;;22.30;79.40;;;;;;5116224;27;20040;-86
2023/07/21 10:38:14;;;;;;;1.48;1.10;;;22.20;79.70;;;;;;5128299;27;20047;-86
2023/07/21 10:40:44;;;;;;;1.73;1.17;;;22.40;79.40;;;;;;5091948;28;20055;-86
2023/07/21 10:43:10;;;;;;;1.35;1.25;;;22.40;79.80;;;;;;5087085;27;20499;-86
2023/07/21 10:45:37;;;;;;;1.13;0.98;;;22.70;78.20;;;;;;5129203;27;20035;-85
2023/07/21 10:48:11;;;;;;;1.73;1.17;;;22.70;75.60;;;;;;5123542;27;20458;-86
2023/07/21 10:50:47;;;;;;;1.20;1.10;;;23.30;76.70;;;;;;5107691;27;20090;-85
2023/07/21 10:53:12;;;;;;;1.20;1.10;;;22.80;77.40;;;;;;5092865;27;20100;-85
2023/07/21 10:55:38;;;;;;;2.60;1.02;;;23.30;77.40;;;;;;5102982;27;20042;-85
2023/07/21 10:58:05;;;;;;;4.30;1.55;;;22.80;77.90;;;;;;5107748;27;20448;-86
2023/07/21 11:00:45;;;;;;;2.65;1.90;;;22.70;77.60;;;;;;5103784;28;20044;-85
2023/07/21 11:03:13;;;;;;;3.17;1.40;;;22.80;77.40;;;;;;5118427;27;20580;-86
2023/07/21 11:05:39;;;;;;;1.83;1.00;;;23.20;76.60;;;;;;5106613;27;20446;-86
2023/07/21 11:08:05;;;;;;;1.10;1.00;;;23.90;76.40;;;;;;5104312;27;20095;-85
2023/07/21 11:10:33;;;;;;;1.77;1.00;;;23.40;75.40;;;;;;5102338;27;20043;-85
2023/07/21 11:13:01;;;;;;;1.25;1.10;;;23.60;69.80;;;;;;5092497;27;20039;-86
2023/07/21 11:15:26;;;;;;;1.40;0.95;;;23.60;70.30;;;;;;5110370;27;20410;-86
2023/07/21 11:18:03;;;;;;;1.58;1.15;;;23.90;69.30;;;;;;5093591;27;20050;-84
2023/07/21 11:20:29;;;;;;;0.98;0.98;;;23.60;68.20;;;;;;5109989;28;20477;-84
2023/07/21 11:22:54;;;;;;;1.10;0.80;;;23.90;69.10;;;;;;5109987;28;20572;-86
2023/07/21 11:25:20;;;;;;;2.50;0.90;;;23.80;69.40;;;;;;5137826;27;20055;-85
2023/07/21 11:27:48;;;;;;;1.30;1.20;;;23.60;69.10;;;;;;5121187;27;20453;-84
2023/07/21 11:30:20;;;;;;;1.10;1.05;;;23.80;70.00;;;;;;5108808;28;20047;-84
2023/07/21 11:32:46;;;;;;;;;;;23.10;71.40;;;;;;5110409;28;20743;-84
2023/07/21 11:35:11;;;;;;;1.20;1.10;;;23.10;72.30;;;;;;5107942;28;19919;-84
2023/07/21 11:37:43;;;;;;;2.17;1.25;;;23.30;72.90;;;;;;5127122;28;20039;-84
2023/07/21 11:40:15;;;;;;;;;;;23.60;75.00;;;;;;5103910;27;20081;-85
2023/07/21 11:42:45;;;;;;;1.52;1.10;;;23.70;69.90;;;;;;5129742;27;20696;-84
2023/07/21 11:45:34;;;;;;;1.40;1.17;;;23.70;69.60;;;;;;5148514;27;20126;-83
2023/07/21 11:48:18;;;;;;;0.90;0.90;;;23.50;66.90;;;;;;5148947;27;20046;-84
2023/07/21 11:50:54;;;;;;;1.15;0.95;;;23.60;69.00;;;;;;5128527;27;20039;-83
2023/07/21 11:53:22;;;;;;;1.52;1.13;;;23.60;67.90;;;;;;5112399;27;20042;-83
2023/07/21 11:55:48;;;;;;;0.90;0.90;;;23.50;68.20;;;;;;5129084;27;20039;-82
2023/07/21 11:58:14;;;;;;;0.80;0.70;;;23.70;67.00;;;;;;5129906;27;20039;-83
2023/07/21 12:00:41;;;;;;;1.45;1.05;;;23.80;68.30;;;;;;5125710;27;20031;-84
2023/07/21 12:03:08;;;;;;;1.30;0.85;;;24.00;67.80;;;;;;5130193;27;20096;-84
2023/07/21 12:05:34;;;;;;;1.17;1.00;;;24.10;66.00;;;;;;5112497;27;20051;-83
2023/07/21 12:08:00;;;;;;;1.08;0.98;;;24.00;66.30;;;;;;5112635;27;20122;-84
2023/07/21 12:10:26;;;;;;;1.08;0.90;;;24.00;66.00;;;;;;5133279;27;20039;-84
2023/07/21 12:12:52;;;;;;;2.38;0.90;;;23.90;65.40;;;;;;5115449;27;20100;-84
2023/07/21 12:15:19;;;;;;;0.80;0.77;;;24.50;65.20;;;;;;5111902;27;20117;-85
2023/07/21 12:17:45;;;;;;;1.10;0.90;;;24.00;64.50;;;;;;5131180;27;20412;-84
2023/07/21 12:20:14;;;;;;;1.73;0.93;;;23.60;62.70;;;;;;5097257;27;20579;-84
2023/07/21 12:22:41;;;;;;;1.83;0.80;;;24.20;63.10;;;;;;5110542;27;20199;-84
2023/07/21 12:25:08;;;;;;;1.13;1.02;;;24.00;63.90;;;;;;5118571;27;20480;-85
2023/07/21 12:27:35;;;;;;;1.13;1.00;;;23.90;63.70;;;;;;5111471;27;20123;-85
2023/07/21 12:30:11;;;;;;;0.88;0.65;;;23.90;64.40;;;;;;5113202;27;20133;-84
2023/07/21 12:32:36;;;;;;;3.10;0.82;;;23.90;65.20;;;;;;5136018;27;20082;-85
2023/07/21 12:35:05;;;;;;;1.00;0.82;;;23.90;65.20;;;;;;5102641;27;20066;-86
2023/07/21 12:37:30;;;;;;;1.35;0.90;;;23.90;63.40;;;;;;5106950;27;20128;-86
2023/07/21 12:39:56;;;;;;;1.77;0.80;;;24.20;62.80;;;;;;5096763;27;20502;-84
2023/07/21 12:42:23;;;;;;;1.15;1.00;;;23.70;63.20;;;;;;5109788;28;20051;-87
2023/07/21 12:44:48;;;;;;;2.72;0.90;;;23.90;63.20;;;;;;5109711;28;20075;-86
2023/07/21 12:47:14;;;;;;;2.22;0.90;;;23.80;63.00;;;;;;5087777;27;20081;-86
2023/07/21 12:49:40;;;;;;;0.80;0.80;;;23.70;63.10;;;;;;5108316;27;20382;-86